createdAt,value
2023-03-17T00:01:21.046Z,11.27
2023-03-17T00:03:50.512Z,11.23
2023-03-17T00:06:24.987Z,11.22
2023-03-17T00:08:53.301Z,11.12
2023-03-17T00:11:23.228Z,11.12
2023-03-17T00:13:51.711Z,11.09
2023-03-17T00:16:22.031Z,11.04
2023-03-17T00:18:51.152Z,11.03
2023-03-17T00:21:23.518Z,10.98
2023-03-17T00:23:52.789Z,10.86
2023-03-17T00:26:23.256Z,10.87
2023-03-17T00:28:52.108Z,10.85
2023-03-17T00:31:23.581Z,10.78
2023-03-17T00:33:53.954Z,10.80
2023-03-17T00:36:24.053Z,10.74
2023-03-17T00:38:52.772Z,10.60
2023-03-17T00:41:22.740Z,10.73
2023-03-17T00:43:51.594Z,10.71
2023-03-17T00:46:23.502Z,10.70
2023-03-17T00:48:51.817Z,10.67
2023-03-17T00:51:20.122Z,10.65
2023-03-17T00:53:48.492Z,10.64
2023-03-17T00:56:19.163Z,10.59
2023-03-17T00:58:49.490Z,10.54
2023-03-17T01:01:18.602Z,10.51
2023-03-17T01:03:47.049Z,10.51
2023-03-17T01:06:16.192Z,10.49
2023-03-17T01:08:45.338Z,10.43
2023-03-17T01:11:18.934Z,10.46
2023-03-17T01:13:48.778Z,10.38
2023-03-17T01:16:17.133Z,10.39
2023-03-17T01:18:45.677Z,10.39
2023-03-17T01:21:14.061Z,10.32
2023-03-17T01:23:43.662Z,10.36
2023-03-17T01:26:12.671Z,10.36
2023-03-17T01:28:40.939Z,10.33
2023-03-17T01:31:10.685Z,10.26
2023-03-17T01:33:39.022Z,10.15
2023-03-17T01:36:08.240Z,10.09
2023-03-17T01:38:36.577Z,10.15
2023-03-17T01:41:05.046Z,10.13
2023-03-17T01:43:33.401Z,10.17
2023-03-17T01:46:29.329Z,10.15
2023-03-17T01:49:23.888Z,10.11
2023-03-17T01:51:56.288Z,9.99
2023-03-17T01:54:28.191Z,10.05
2023-03-17T01:56:58.509Z,10.08
2023-03-17T01:59:29.664Z,10.03
2023-03-17T02:02:02.973Z,10.01
2023-03-17T02:04:32.663Z,10.04
2023-03-17T02:07:01.135Z,10.01
2023-03-17T02:09:31.027Z,10.04
2023-03-17T02:12:01.350Z,10.00
2023-03-17T02:14:30.110Z,10.01
2023-03-17T02:16:59.803Z,9.97
2023-03-17T02:19:28.576Z,9.99
2023-03-17T02:21:59.112Z,9.94
2023-03-17T02:24:29.982Z,9.95
2023-03-17T02:27:00.826Z,9.84
2023-03-17T02:29:29.189Z,9.87
2023-03-17T02:31:57.466Z,9.80
2023-03-17T02:34:25.749Z,9.31
2023-03-17T02:36:54.077Z,9.59
2023-03-17T02:39:23.928Z,9.66
2023-03-17T02:41:53.070Z,9.70
2023-03-17T02:44:21.447Z,9.67
2023-03-17T02:46:49.744Z,9.71
2023-03-17T02:49:18.604Z,9.68
2023-03-17T02:51:47.659Z,9.57
2023-03-17T02:54:15.949Z,9.64
2023-03-17T02:56:45.929Z,9.56
2023-03-17T02:59:14.214Z,9.51
2023-03-17T03:01:42.611Z,9.52
2023-03-17T03:04:11.875Z,9.51
2023-03-17T03:06:42.571Z,9.51
2023-03-17T03:09:11.780Z,9.52
2023-03-17T03:11:40.735Z,9.55
2023-03-17T03:14:10.440Z,9.42
2023-03-17T03:16:38.792Z,9.37
2023-03-17T03:19:07.748Z,9.47
2023-03-17T03:21:36.725Z,9.55
2023-03-17T03:24:05.510Z,9.28
2023-03-17T03:26:33.885Z,9.46
2023-03-17T03:29:02.255Z,9.52
2023-03-17T03:31:32.201Z,9.52
2023-03-17T03:34:00.948Z,9.42
2023-03-17T03:36:29.217Z,9.53
2023-03-17T03:38:57.999Z,9.60
2023-03-17T03:41:26.361Z,9.55
2023-03-17T03:43:54.642Z,9.59
2023-03-17T03:46:22.970Z,9.66
2023-03-17T03:48:52.626Z,9.55
2023-03-17T03:51:20.864Z,9.59
2023-03-17T03:53:49.242Z,9.56
2023-03-17T03:56:17.604Z,9.58
2023-03-17T03:58:45.880Z,9.52
2023-03-17T04:01:14.516Z,9.61
2023-03-17T04:03:42.854Z,9.56
2023-03-17T04:06:12.450Z,9.51
2023-03-17T04:08:40.717Z,9.52
2023-03-17T04:11:09.739Z,9.47
2023-03-17T04:13:38.498Z,9.45
2023-03-17T04:16:07.491Z,9.50
2023-03-17T04:18:36.431Z,9.52
2023-03-17T04:21:04.775Z,9.64
2023-03-17T04:23:34.378Z,9.59
2023-03-17T04:26:04.123Z,9.60
2023-03-17T04:28:32.576Z,9.70
2023-03-17T04:31:00.842Z,9.67
2023-03-17T04:33:29.127Z,9.74
2023-03-17T04:35:58.510Z,9.52
2023-03-17T04:38:26.922Z,9.50
2023-03-17T04:40:56.673Z,9.57
2023-03-17T04:43:25.067Z,9.48
2023-03-17T04:45:53.467Z,9.66
2023-03-17T04:48:21.781Z,9.56
2023-03-17T04:50:50.114Z,9.60
2023-03-17T04:53:18.461Z,9.49
2023-03-17T04:55:47.182Z,9.60
2023-03-17T04:58:29.966Z,9.51
2023-03-17T05:00:59.170Z,9.43
2023-03-17T05:03:28.624Z,9.39
2023-03-17T05:05:57.415Z,9.39
2023-03-17T05:08:26.355Z,9.39
2023-03-17T05:10:54.873Z,9.20
2023-03-17T05:13:25.145Z,9.18
2023-03-17T05:15:55.274Z,9.07
2023-03-17T05:18:24.926Z,8.93
2023-03-17T05:20:53.432Z,9.17
2023-03-17T05:23:22.294Z,9.18
2023-03-17T05:25:51.009Z,8.95
2023-03-17T05:28:19.401Z,9.10
2023-03-17T05:30:49.306Z,9.22
2023-03-17T05:33:18.290Z,9.32
2023-03-17T05:35:46.660Z,9.35
2023-03-17T05:38:15.937Z,9.49
2023-03-17T05:40:44.428Z,9.54
2023-03-17T05:43:12.671Z,9.58
2023-03-17T05:45:41.251Z,9.62
2023-03-17T05:48:12.290Z,9.79
2023-03-17T05:50:41.681Z,9.87
2023-03-17T05:53:10.603Z,9.99
2023-03-17T05:55:39.106Z,10.16
2023-03-17T05:58:07.813Z,10.33
2023-03-17T06:00:36.431Z,10.48
2023-03-17T06:03:05.301Z,10.65
2023-03-17T06:05:35.166Z,10.73
2023-03-17T06:08:05.083Z,10.77
2023-03-17T06:10:34.099Z,10.83
2023-03-17T06:13:03.955Z,10.77
2023-03-17T06:15:33.793Z,11.03
2023-03-17T06:18:02.513Z,11.01
2023-03-17T06:20:31.261Z,10.98
2023-03-17T06:23:04.962Z,11.00
2023-03-17T06:25:34.581Z,10.90
2023-03-17T06:28:03.930Z,10.88
2023-03-17T06:30:32.804Z,10.98
2023-03-17T06:33:01.663Z,10.97
2023-03-17T06:35:30.340Z,11.07
2023-03-17T06:38:00.904Z,11.02
2023-03-17T06:40:31.092Z,11.10
2023-03-17T06:42:59.558Z,10.90
2023-03-17T06:45:27.993Z,11.20
2023-03-17T06:47:56.247Z,11.07
2023-03-17T06:50:24.496Z,11.28
2023-03-17T06:52:52.881Z,11.30
2023-03-17T06:55:22.488Z,11.45
2023-03-17T06:57:51.444Z,10.93
2023-03-17T07:00:21.031Z,11.33
2023-03-17T07:02:49.569Z,11.39
2023-03-17T07:05:18.055Z,11.60
2023-03-17T07:07:46.697Z,11.52
2023-03-17T07:10:15.767Z,11.72
2023-03-17T07:12:45.589Z,11.65
2023-03-17T07:15:13.952Z,11.66
2023-03-17T07:17:42.647Z,11.59
2023-03-17T07:20:12.002Z,11.68
2023-03-17T07:22:40.262Z,11.69
2023-03-17T07:25:09.634Z,11.69
2023-03-17T07:27:38.062Z,11.92
2023-03-17T07:30:09.276Z,12.19
2023-03-17T07:32:37.856Z,12.02
2023-03-17T07:35:07.358Z,12.31
2023-03-17T07:37:35.659Z,12.29
2023-03-17T07:40:04.481Z,12.23
2023-03-17T07:42:34.021Z,12.29
2023-03-17T07:45:02.244Z,12.55
2023-03-17T07:47:31.825Z,12.73
2023-03-17T07:50:00.058Z,12.97
2023-03-17T07:52:28.336Z,12.89
2023-03-17T07:54:58.270Z,13.36
2023-03-17T07:57:27.188Z,13.52
2023-03-17T07:59:55.957Z,13.77
2023-03-17T08:02:24.356Z,13.65
2023-03-17T08:04:54.689Z,13.47
2023-03-17T08:07:22.926Z,13.80
2023-03-17T08:09:51.228Z,13.86
2023-03-17T08:12:20.130Z,13.80
2023-03-17T08:14:48.552Z,13.77
2023-03-17T08:17:16.993Z,13.83
2023-03-17T08:19:45.238Z,13.98
2023-03-17T08:22:14.988Z,14.39
2023-03-17T08:24:43.317Z,14.30
2023-03-17T08:27:11.756Z,14.76
2023-03-17T08:29:40.319Z,14.77
2023-03-17T08:32:09.614Z,14.53
2023-03-17T08:34:37.934Z,14.90
2023-03-17T08:37:07.005Z,15.08
2023-03-17T08:39:37.705Z,14.98
2023-03-17T08:42:06.101Z,15.05
2023-03-17T08:44:35.039Z,15.63
2023-03-17T08:47:03.963Z,15.72
2023-03-17T08:49:34.803Z,15.43
2023-03-17T08:52:03.541Z,15.77
2023-03-17T08:54:31.848Z,15.98
2023-03-17T08:57:01.833Z,16.27
2023-03-17T08:59:30.214Z,16.12
2023-03-17T09:01:58.494Z,16.64
2023-03-17T09:04:27.984Z,16.97
2023-03-17T09:07:03.282Z,16.91
2023-03-17T09:09:32.332Z,17.07
2023-03-17T09:12:02.331Z,17.35
2023-03-17T09:14:35.308Z,17.35
2023-03-17T09:17:11.610Z,17.41
2023-03-17T09:19:40.405Z,17.90
2023-03-17T09:22:08.906Z,17.95
2023-03-17T09:24:37.341Z,17.86
2023-03-17T09:27:07.154Z,17.83
2023-03-17T09:29:35.764Z,18.25
2023-03-17T09:32:04.050Z,18.46
2023-03-17T09:34:32.768Z,18.81
2023-03-17T09:37:01.014Z,18.89
2023-03-17T09:39:29.338Z,18.98
2023-03-17T09:42:03.341Z,19.15
2023-03-17T09:44:41.296Z,19.13
2023-03-17T09:47:25.333Z,19.36
2023-03-17T09:49:56.227Z,19.16
2023-03-17T09:52:28.274Z,19.89
2023-03-17T09:54:57.146Z,19.54
2023-03-17T09:57:30.485Z,20.05
2023-03-17T10:00:06.377Z,20.22
2023-03-17T10:02:37.435Z,20.17
2023-03-17T10:05:14.853Z,20.02
2023-03-17T10:07:46.677Z,19.99
2023-03-17T10:10:16.904Z,20.58
2023-03-17T10:12:49.561Z,20.49
2023-03-17T10:15:23.719Z,19.99
2023-03-17T10:17:53.464Z,20.53
2023-03-17T10:20:26.026Z,20.93
2023-03-17T10:22:58.073Z,20.67
2023-03-17T10:25:30.032Z,20.31
2023-03-17T10:28:00.898Z,20.27
2023-03-17T10:30:33.591Z,20.86
2023-03-17T10:33:04.117Z,21.21
2023-03-17T10:35:36.014Z,21.06
2023-03-17T10:38:15.882Z,21.01
2023-03-17T10:40:47.754Z,20.86
2023-03-17T10:43:21.721Z,21.54
2023-03-17T10:46:00.802Z,21.43
2023-03-17T10:48:30.200Z,21.43
2023-03-17T10:50:59.678Z,21.59
2023-03-17T10:53:31.378Z,21.48
2023-03-17T10:56:00.993Z,21.87
2023-03-17T10:58:39.213Z,21.39
2023-03-17T11:01:20.171Z,21.85
2023-03-17T11:03:49.155Z,21.84
2023-03-17T11:06:19.150Z,21.69
2023-03-17T11:08:50.140Z,21.47
2023-03-17T11:11:27.167Z,21.87
2023-03-17T11:14:02.982Z,21.36
2023-03-17T11:16:33.659Z,22.05
2023-03-17T11:19:02.723Z,22.08
2023-03-17T11:21:32.299Z,22.18
2023-03-17T11:24:08.230Z,22.10
2023-03-17T11:26:46.457Z,22.25
2023-03-17T11:29:23.803Z,22.80
2023-03-17T11:31:59.032Z,22.65
2023-03-17T11:34:34.397Z,22.82
2023-03-17T11:37:06.982Z,22.89
2023-03-17T11:39:40.380Z,23.07
2023-03-17T11:42:14.144Z,22.46
2023-03-17T11:45:15.481Z,22.43
2023-03-17T11:48:08.521Z,23.32
2023-03-17T11:50:40.809Z,23.42
2023-03-17T11:53:29.055Z,23.07
2023-03-17T11:56:01.507Z,23.03
2023-03-17T11:58:33.660Z,22.74
2023-03-17T12:01:03.048Z,22.82
2023-03-17T12:03:38.837Z,23.01
2023-03-17T12:06:13.378Z,23.22
2023-03-17T12:08:45.491Z,23.14
2023-03-17T12:11:17.105Z,23.06
2023-03-17T12:13:47.617Z,23.66
2023-03-17T12:16:17.438Z,24.02
2023-03-17T12:18:55.898Z,23.74
2023-03-17T12:21:28.324Z,23.72
2023-03-17T12:24:01.828Z,23.88
2023-03-17T12:26:37.066Z,23.60
2023-03-17T12:29:07.528Z,23.98
2023-03-17T12:31:36.238Z,24.22
2023-03-17T12:34:10.407Z,24.24
2023-03-17T12:36:39.138Z,24.11
2023-03-17T12:39:10.538Z,23.82
2023-03-17T12:42:10.058Z,24.20
2023-03-17T12:44:50.291Z,23.56
2023-03-17T12:47:32.447Z,24.07
2023-03-17T12:50:11.049Z,24.54
2023-03-17T12:52:53.011Z,24.39
2023-03-17T12:55:25.280Z,24.25
2023-03-17T12:58:02.014Z,24.57
2023-03-17T13:00:31.683Z,24.56
2023-03-17T13:03:16.168Z,24.47
2023-03-17T13:05:49.846Z,24.57
2023-03-17T13:08:28.282Z,24.55
2023-03-17T13:11:18.916Z,25.19
2023-03-17T13:13:59.206Z,24.56
2023-03-17T13:16:30.447Z,24.90
2023-03-17T13:19:14.925Z,25.38
2023-03-17T13:21:47.246Z,24.86
2023-03-17T13:24:24.216Z,25.10
2023-03-17T13:26:58.509Z,24.90
2023-03-17T13:29:50.467Z,25.39
2023-03-17T13:32:39.043Z,25.43
2023-03-17T13:35:22.113Z,25.19
2023-03-17T13:38:17.755Z,25.79
2023-03-17T13:40:52.079Z,25.89
2023-03-17T13:43:33.687Z,26.10
2023-03-17T13:46:21.529Z,25.95
2023-03-17T13:48:50.254Z,25.87
2023-03-17T13:51:23.445Z,26.14
2023-03-17T13:53:56.485Z,26.35
2023-03-17T13:56:27.838Z,25.93
2023-03-17T13:59:14.404Z,25.90
2023-03-17T14:01:44.857Z,25.89
2023-03-17T14:04:20.725Z,25.97
2023-03-17T14:06:51.238Z,26.31
2023-03-17T14:09:29.013Z,26.23
2023-03-17T14:11:59.458Z,26.15
2023-03-17T14:14:33.574Z,25.74
2023-03-17T14:17:05.146Z,26.00
2023-03-17T14:19:33.575Z,25.86
2023-03-17T14:22:23.023Z,25.76
2023-03-17T14:24:56.772Z,26.13
2023-03-17T14:27:25.851Z,25.88
2023-03-17T14:29:54.214Z,26.11
2023-03-17T14:32:25.213Z,25.67
2023-03-17T14:34:58.395Z,25.65
2023-03-17T14:37:28.031Z,25.74
2023-03-17T14:39:59.185Z,25.71
2023-03-17T14:42:28.976Z,25.90
2023-03-17T14:45:04.882Z,25.57
2023-03-17T14:47:38.469Z,25.49
2023-03-17T14:50:15.304Z,25.27
2023-03-17T14:52:43.710Z,25.20
2023-03-17T14:55:16.548Z,25.31
2023-03-17T14:57:49.963Z,25.51
2023-03-17T15:00:32.885Z,25.43
2023-03-17T15:03:03.461Z,25.07
2023-03-17T15:05:38.948Z,25.21
2023-03-17T15:08:29.339Z,25.34
2023-03-17T15:11:00.292Z,24.74
2023-03-17T15:13:29.915Z,25.12
2023-03-17T15:15:59.046Z,25.09
2023-03-17T15:18:28.720Z,24.87
2023-03-17T15:20:58.301Z,25.08
2023-03-17T15:23:30.388Z,25.04
2023-03-17T15:26:00.061Z,24.73
2023-03-17T15:28:31.166Z,25.00
2023-03-17T15:31:11.826Z,24.93
2023-03-17T15:33:41.367Z,24.92
2023-03-17T15:36:31.377Z,24.60
2023-03-17T15:39:00.561Z,24.60
2023-03-17T15:41:30.272Z,24.81
2023-03-17T15:43:58.497Z,24.33
2023-03-17T15:46:32.190Z,24.46
2023-03-17T15:49:00.797Z,24.66
2023-03-17T15:51:29.043Z,24.64
2023-03-17T15:53:57.378Z,24.92
2023-03-17T15:56:25.967Z,24.81
2023-03-17T15:58:55.610Z,24.39
2023-03-17T16:01:27.313Z,24.70
2023-03-17T16:03:56.218Z,24.68
2023-03-17T16:06:25.506Z,24.55
2023-03-17T16:08:53.897Z,24.50
2023-03-17T16:11:28.137Z,24.70
2023-03-17T16:13:59.570Z,24.39
2023-03-17T16:16:33.315Z,24.25
2023-03-17T16:19:01.745Z,24.25
2023-03-17T16:21:30.790Z,24.13
2023-03-17T16:23:59.486Z,23.86
2023-03-17T16:26:27.990Z,23.83
2023-03-17T16:28:58.229Z,23.72
2023-03-17T16:31:29.255Z,23.63
2023-03-17T16:33:57.687Z,23.32
2023-03-17T16:36:26.365Z,23.09
2023-03-17T16:38:55.171Z,23.30
2023-03-17T16:41:25.586Z,22.93
2023-03-17T16:43:55.393Z,23.10
2023-03-17T16:46:25.891Z,23.04
2023-03-17T16:48:53.933Z,22.70
2023-03-17T16:51:22.125Z,22.62
2023-03-17T16:53:50.403Z,22.26
2023-03-17T16:56:20.538Z,22.37
2023-03-17T16:58:49.435Z,22.19
2023-03-17T17:01:20.050Z,22.17
2023-03-17T17:03:49.889Z,21.90
2023-03-17T17:06:19.201Z,21.85
2023-03-17T17:08:48.502Z,21.68
2023-03-17T17:11:18.015Z,21.69
2023-03-17T17:13:48.018Z,21.50
2023-03-17T17:16:20.758Z,21.31
2023-03-17T17:18:50.325Z,21.19
2023-03-17T17:21:18.576Z,21.22
2023-03-17T17:23:47.664Z,21.14
2023-03-17T17:26:16.057Z,21.01
2023-03-17T17:28:44.305Z,20.96
2023-03-17T17:31:12.606Z,20.83
2023-03-17T17:33:41.041Z,20.75
2023-03-17T17:36:16.208Z,20.61
2023-03-17T17:38:45.447Z,20.58
2023-03-17T17:41:17.213Z,20.48
2023-03-17T17:43:49.878Z,20.39
2023-03-17T17:46:20.084Z,20.26
2023-03-17T17:48:48.455Z,20.11
2023-03-17T17:51:18.042Z,20.01
2023-03-17T17:53:46.308Z,19.89
2023-03-17T17:56:15.371Z,19.81
2023-03-17T17:58:44.102Z,19.76
2023-03-17T18:01:13.962Z,19.65
2023-03-17T18:03:43.126Z,19.58
2023-03-17T18:06:12.945Z,19.48
2023-03-17T18:08:43.548Z,19.42
2023-03-17T18:11:12.150Z,19.38
2023-03-17T18:13:41.056Z,19.33
2023-03-17T18:16:10.739Z,19.32
2023-03-17T18:18:42.286Z,19.30
2023-03-17T18:21:11.098Z,19.23
2023-03-17T18:23:39.308Z,19.16
2023-03-17T18:26:09.361Z,19.07
2023-03-17T18:28:37.578Z,19.17
2023-03-17T18:31:10.496Z,19.02
2023-03-17T18:33:39.820Z,19.04
2023-03-17T18:36:09.051Z,19.03
2023-03-17T18:38:38.373Z,18.99
2023-03-17T18:41:11.100Z,18.96
2023-03-17T18:43:40.969Z,18.87
2023-03-17T18:46:09.232Z,18.88
2023-03-17T18:48:37.479Z,18.87
2023-03-17T18:51:05.895Z,18.78
2023-03-17T18:53:35.313Z,18.65
2023-03-17T18:56:03.623Z,18.48
2023-03-17T18:58:33.277Z,18.36
2023-03-17T19:01:02.467Z,18.24
2023-03-17T19:03:32.201Z,18.17
2023-03-17T19:06:09.057Z,18.10
2023-03-17T19:08:37.403Z,17.68
2023-03-17T19:11:07.483Z,17.71
2023-03-17T19:13:37.494Z,17.75
2023-03-17T19:16:07.578Z,17.66
2023-03-17T19:18:36.686Z,17.56
2023-03-17T19:21:05.282Z,17.47
2023-03-17T19:23:34.691Z,17.38
2023-03-17T19:26:04.700Z,17.30
2023-03-17T19:28:33.054Z,17.22
2023-03-17T19:31:02.698Z,17.15
2023-03-17T19:33:32.504Z,17.05
2023-03-17T19:36:02.726Z,17.00
2023-03-17T19:38:31.207Z,17.02
2023-03-17T19:40:59.874Z,16.99
2023-03-17T19:43:39.892Z,16.93
2023-03-17T19:46:10.209Z,16.89
2023-03-17T19:48:38.393Z,16.92
2023-03-17T19:51:06.895Z,16.95
2023-03-17T19:53:35.279Z,16.94
2023-03-17T19:56:04.244Z,16.85
2023-03-17T19:58:32.476Z,16.74
2023-03-17T20:01:00.748Z,16.70
2023-03-17T20:03:30.523Z,16.69
2023-03-17T20:06:01.032Z,16.55
2023-03-17T20:08:29.339Z,16.48
2023-03-17T20:10:57.589Z,16.43
2023-03-17T20:13:26.193Z,16.39
2023-03-17T20:15:54.857Z,16.31
2023-03-17T20:18:23.683Z,16.20
2023-03-17T20:20:54.605Z,16.16
2023-03-17T20:23:23.412Z,16.11
2023-03-17T20:25:52.693Z,16.05
2023-03-17T20:28:22.429Z,16.00
2023-03-17T20:30:51.439Z,15.84
2023-03-17T20:33:19.733Z,15.93
2023-03-17T20:35:48.339Z,15.85
2023-03-17T20:38:18.583Z,15.75
2023-03-17T20:40:46.926Z,15.60
2023-03-17T20:43:15.242Z,15.46
2023-03-17T20:45:43.602Z,15.44
2023-03-17T20:48:12.002Z,15.34
2023-03-17T20:50:41.265Z,15.20
2023-03-17T20:53:10.418Z,15.13
2023-03-17T20:55:40.141Z,15.08
2023-03-17T20:58:08.450Z,15.00
2023-03-17T21:00:36.811Z,14.92
2023-03-17T21:03:05.550Z,14.86
2023-03-17T21:05:35.626Z,14.71
2023-03-17T21:08:05.470Z,14.59
2023-03-17T21:10:33.940Z,14.42
2023-03-17T21:13:03.622Z,14.37
2023-03-17T21:15:31.923Z,14.28
2023-03-17T21:18:00.198Z,14.17
2023-03-17T21:20:28.637Z,14.13
2023-03-17T21:22:57.299Z,14.09
2023-03-17T21:25:25.618Z,14.06
2023-03-17T21:27:53.943Z,13.98
2023-03-17T21:30:23.624Z,13.83
2023-03-17T21:32:53.568Z,13.71
2023-03-17T21:35:22.004Z,13.65
2023-03-17T21:37:50.474Z,13.58
2023-03-17T21:40:19.587Z,13.52
2023-03-17T21:42:47.933Z,13.45
2023-03-17T21:45:17.856Z,13.35
2023-03-17T21:47:47.485Z,13.24
2023-03-17T21:50:17.754Z,13.18
2023-03-17T21:52:46.101Z,13.16
2023-03-17T21:55:14.574Z,13.15
2023-03-17T21:57:43.040Z,13.13
2023-03-17T22:00:12.471Z,13.10
2023-03-17T22:02:41.878Z,13.07
2023-03-17T22:05:11.808Z,13.06
2023-03-17T22:07:41.065Z,13.04
2023-03-17T22:10:10.670Z,12.97
2023-03-17T22:12:39.796Z,12.87
2023-03-17T22:15:10.236Z,12.81
2023-03-17T22:17:39.717Z,12.77
2023-03-17T22:20:09.080Z,12.72
2023-03-17T22:22:38.895Z,12.63
2023-03-17T22:25:08.190Z,12.54
2023-03-17T22:27:36.464Z,12.50
2023-03-17T22:30:06.410Z,12.45
2023-03-17T22:32:34.759Z,12.41
2023-03-17T22:35:03.157Z,12.39
2023-03-17T22:37:31.737Z,12.31
2023-03-17T22:40:04.011Z,12.24
2023-03-17T22:42:32.323Z,12.18
2023-03-17T22:45:00.694Z,12.14
2023-03-17T22:47:29.104Z,12.15
2023-03-17T22:49:57.428Z,12.11
2023-03-17T22:52:25.729Z,12.08
2023-03-17T22:54:54.035Z,12.05
2023-03-17T22:57:23.813Z,12.06
2023-03-17T22:59:55.157Z,12.07
2023-03-17T23:02:23.538Z,12.05
2023-03-17T23:04:51.902Z,12.00
2023-03-17T23:07:20.424Z,11.96
2023-03-17T23:09:49.056Z,11.93
2023-03-17T23:12:17.836Z,11.88
2023-03-17T23:14:47.549Z,11.81
2023-03-17T23:17:15.882Z,11.74
2023-03-17T23:19:44.141Z,11.67
2023-03-17T23:22:12.798Z,11.60
2023-03-17T23:24:41.035Z,11.52
2023-03-17T23:27:09.636Z,11.50
2023-03-17T23:29:37.912Z,11.43
2023-03-17T23:32:08.296Z,11.37
2023-03-17T23:34:36.640Z,11.33
2023-03-17T23:37:05.029Z,11.28
2023-03-17T23:39:33.547Z,11.29
2023-03-17T23:42:01.873Z,11.25
2023-03-17T23:44:30.161Z,11.19
2023-03-17T23:46:58.426Z,11.27
2023-03-17T23:49:28.210Z,11.26
2023-03-17T23:51:57.078Z,11.24
2023-03-17T23:54:25.590Z,11.14
2023-03-17T23:56:54.146Z,11.06
2023-03-17T23:59:22.660Z,10.97
